createdAt,value
2017-08-17T00:00:42.934Z,81.2
2017-08-17T00:01:44.334Z,80.9
2017-08-17T00:02:45.693Z,80.9
2017-08-17T00:03:47.080Z,80.7
2017-08-17T00:04:48.457Z,80.7
2017-08-17T00:05:49.831Z,80.9
2017-08-17T00:06:51.279Z,80.8
2017-08-17T00:07:52.653Z,80.8
2017-08-17T00:08:54.031Z,81.2
2017-08-17T00:09:55.410Z,81.5
2017-08-17T00:10:56.802Z,81.3
2017-08-17T00:11:58.175Z,81.8
2017-08-17T00:12:59.589Z,81.4
2017-08-17T00:14:00.952Z,81.0
2017-08-17T00:15:02.326Z,82.2
2017-08-17T00:16:03.701Z,81.7
2017-08-17T00:17:05.086Z,80.8
2017-08-17T00:18:06.466Z,81.0
2017-08-17T00:19:07.844Z,81.0
2017-08-17T00:20:09.228Z,80.7
2017-08-17T00:21:10.610Z,80.4
2017-08-17T00:22:11.983Z,80.3
2017-08-17T00:23:13.362Z,80.3
2017-08-17T00:24:14.757Z,80.5
2017-08-17T00:25:16.138Z,80.1
2017-08-17T00:26:17.521Z,81.0
2017-08-17T00:27:18.904Z,81.2
2017-08-17T00:28:20.286Z,81.0
2017-08-17T00:29:21.666Z,81.0
2017-08-17T00:30:23.042Z,80.3
2017-08-17T00:31:24.431Z,80.4
2017-08-17T00:32:25.810Z,80.6
2017-08-17T00:34:08.181Z,80.1
2017-08-17T00:35:09.608Z,80.1
2017-08-17T00:36:11.088Z,80.2
2017-08-17T00:37:12.468Z,80.3
2017-08-17T00:38:13.873Z,79.9
2017-08-17T00:39:15.226Z,80.2
2017-08-17T00:40:16.608Z,80.2
2017-08-17T00:41:18.010Z,80.5
2017-08-17T00:42:19.508Z,80.3
2017-08-17T00:43:21.216Z,80.0
2017-08-17T00:44:22.636Z,80.2
2017-08-17T00:45:24.007Z,80.2
2017-08-17T00:46:25.390Z,79.5
2017-08-17T00:47:26.775Z,79.3
2017-08-17T00:48:28.186Z,79.3
2017-08-17T00:50:10.550Z,78.8
2017-08-17T00:51:11.958Z,78.6
2017-08-17T00:52:13.330Z,78.5
2017-08-17T00:53:14.713Z,78.4
2017-08-17T00:54:16.092Z,78.1
2017-08-17T00:55:17.477Z,78.7
2017-08-17T00:56:18.859Z,78.6
2017-08-17T00:57:20.241Z,78.1
2017-08-17T00:58:21.648Z,78.1
2017-08-17T00:59:23.027Z,78.1
2017-08-17T01:00:24.462Z,77.7
2017-08-17T01:01:25.840Z,77.7
2017-08-17T01:02:27.219Z,77.8
2017-08-17T01:03:28.598Z,77.8
2017-08-17T01:04:30.029Z,77.4
2017-08-17T01:05:31.562Z,77.1
2017-08-17T01:06:32.957Z,77.5
2017-08-17T01:07:34.393Z,77.1
2017-08-17T01:08:35.787Z,77.6
2017-08-17T01:09:37.168Z,78.1
2017-08-17T01:10:38.549Z,77.3
2017-08-17T01:11:39.932Z,77.7
2017-08-17T01:12:41.311Z,77.9
2017-08-17T01:13:42.688Z,77.3
2017-08-17T01:14:44.070Z,77.4
2017-08-17T01:15:45.449Z,77.0
2017-08-17T01:16:46.829Z,77.1
2017-08-17T01:17:48.208Z,77.2
2017-08-17T01:18:49.594Z,77.2
2017-08-17T01:19:50.969Z,76.9
2017-08-17T01:20:52.345Z,77.3
2017-08-17T01:22:34.726Z,77.9
2017-08-17T01:23:36.102Z,77.7
2017-08-17T01:24:37.562Z,78.1
2017-08-17T01:25:38.908Z,77.7
2017-08-17T01:26:40.285Z,77.1
2017-08-17T01:27:41.663Z,77.1
2017-08-17T01:28:43.044Z,77.0
2017-08-17T01:29:44.424Z,77.0
2017-08-17T01:30:45.803Z,76.7
2017-08-17T01:31:47.180Z,77.3
2017-08-17T01:32:48.558Z,76.6
2017-08-17T01:33:49.939Z,77.1
2017-08-17T01:34:51.317Z,76.7
2017-08-17T01:35:52.699Z,76.9
2017-08-17T01:36:54.100Z,77.0
2017-08-17T01:38:36.621Z,76.6
2017-08-17T01:39:37.931Z,76.6
2017-08-17T01:40:39.318Z,77.0
2017-08-17T01:41:40.698Z,77.0
2017-08-17T01:42:42.082Z,77.0
2017-08-17T01:43:43.459Z,76.5
2017-08-17T01:44:44.840Z,76.8
2017-08-17T01:45:46.231Z,76.5
2017-08-17T01:46:47.603Z,76.7
2017-08-17T01:47:48.981Z,76.7
2017-08-17T01:48:50.360Z,76.8
2017-08-17T01:49:51.849Z,77.0
2017-08-17T01:50:53.230Z,76.7
2017-08-17T01:51:54.613Z,76.7
2017-08-17T01:52:55.996Z,76.7
2017-08-17T01:53:57.372Z,76.6
2017-08-17T01:54:58.771Z,76.8
2017-08-17T01:56:00.431Z,76.8
2017-08-17T01:57:02.251Z,76.8
2017-08-17T01:58:03.707Z,76.9
2017-08-17T01:59:05.090Z,76.6
2017-08-17T02:00:06.469Z,76.7
2017-08-17T02:01:07.848Z,77.1
2017-08-17T02:02:09.366Z,76.9
2017-08-17T02:03:10.772Z,77.5
2017-08-17T02:04:12.141Z,77.3
2017-08-17T02:05:13.529Z,77.6
2017-08-17T02:06:14.944Z,77.8
2017-08-17T02:07:16.328Z,77.9
2017-08-17T02:08:17.745Z,77.7
2017-08-17T02:09:19.156Z,77.8
2017-08-17T02:10:20.556Z,77.7
2017-08-17T02:11:21.941Z,77.9
2017-08-17T02:12:23.321Z,78.0
2017-08-17T02:13:24.730Z,78.0
2017-08-17T02:14:26.118Z,78.2
2017-08-17T02:15:27.500Z,78.2
2017-08-17T02:16:28.877Z,78.4
2017-08-17T02:17:30.257Z,78.3
2017-08-17T02:18:31.653Z,78.5
2017-08-17T02:19:33.027Z,78.1
2017-08-17T02:20:34.441Z,78.7
2017-08-17T02:21:35.822Z,78.0
2017-08-17T02:22:37.228Z,78.1
2017-08-17T02:23:38.612Z,78.1
2017-08-17T02:24:39.991Z,78.3
2017-08-17T02:25:41.373Z,78.5
2017-08-17T02:26:42.748Z,78.3
2017-08-17T02:27:44.142Z,78.9
2017-08-17T02:28:45.521Z,79.0
2017-08-17T02:29:46.920Z,78.3
2017-08-17T02:31:28.285Z,78.9
2017-08-17T02:32:29.664Z,79.2
2017-08-17T02:33:53.356Z,79.2
2017-08-17T02:34:54.840Z,79.4
2017-08-17T02:35:56.203Z,79.2
2017-08-17T02:36:57.560Z,79.4
2017-08-17T02:37:58.938Z,79.0
2017-08-17T02:39:00.321Z,79.3
2017-08-17T02:40:01.704Z,79.2
2017-08-17T02:41:03.103Z,79.3
2017-08-17T02:42:04.474Z,79.2
2017-08-17T02:43:05.852Z,79.0
2017-08-17T02:44:07.234Z,79.0
2017-08-17T02:45:08.611Z,79.3
2017-08-17T02:46:09.991Z,79.2
2017-08-17T02:47:52.368Z,80.0
2017-08-17T02:48:53.757Z,79.5
2017-08-17T02:49:55.136Z,79.5
2017-08-17T02:50:56.512Z,79.9
2017-08-17T02:51:58.104Z,79.9
2017-08-17T02:52:59.671Z,79.9
2017-08-17T02:54:01.036Z,79.9
2017-08-17T02:55:02.472Z,80.0
2017-08-17T02:56:03.847Z,80.1
2017-08-17T02:57:05.228Z,79.9
2017-08-17T02:58:06.605Z,79.7
2017-08-17T02:59:07.984Z,80.1
2017-08-17T03:00:09.365Z,79.9
2017-08-17T03:01:10.940Z,79.9
2017-08-17T03:02:12.323Z,79.9
2017-08-17T03:03:13.699Z,80.0
2017-08-17T03:04:15.077Z,80.3
2017-08-17T03:05:16.456Z,80.3
2017-08-17T03:06:17.836Z,80.6
2017-08-17T03:07:19.217Z,80.3
2017-08-17T03:08:20.601Z,80.3
2017-08-17T03:09:21.985Z,80.3
2017-08-17T03:10:23.359Z,80.1
2017-08-17T03:11:24.751Z,80.2
2017-08-17T03:12:26.126Z,80.0
2017-08-17T03:13:27.506Z,80.0
2017-08-17T03:14:28.934Z,80.4
2017-08-17T03:15:30.557Z,80.5
2017-08-17T03:16:31.933Z,80.1
2017-08-17T03:17:33.362Z,80.3
2017-08-17T03:18:34.753Z,80.0
2017-08-17T03:20:17.915Z,80.4
2017-08-17T03:21:19.378Z,80.2
2017-08-17T03:22:20.843Z,80.4
2017-08-17T03:23:22.201Z,80.9
2017-08-17T03:24:23.581Z,80.9
2017-08-17T03:25:24.959Z,80.8
2017-08-17T03:26:26.353Z,80.8
2017-08-17T03:27:27.736Z,80.9
2017-08-17T03:28:29.139Z,81.2
2017-08-17T03:29:30.556Z,81.2
2017-08-17T03:30:31.938Z,82.0
2017-08-17T03:31:33.323Z,81.6
2017-08-17T03:32:34.756Z,81.4
2017-08-17T03:33:36.129Z,81.8
2017-08-17T03:34:37.517Z,82.0
2017-08-17T03:36:19.901Z,81.0
2017-08-17T03:37:21.270Z,81.8
2017-08-17T03:38:22.648Z,82.0
2017-08-17T03:39:24.029Z,81.7
2017-08-17T03:40:25.407Z,81.5
2017-08-17T03:41:26.787Z,81.7
2017-08-17T03:42:28.166Z,81.3
2017-08-17T03:43:29.555Z,82.4
2017-08-17T03:44:30.938Z,81.6
2017-08-17T03:45:32.565Z,81.8
2017-08-17T03:46:33.940Z,81.5
2017-08-17T03:47:35.318Z,81.7
2017-08-17T03:48:36.690Z,81.7
2017-08-17T03:49:38.077Z,81.9
2017-08-17T03:50:39.464Z,81.9
2017-08-17T03:51:40.840Z,81.9
2017-08-17T03:52:42.218Z,82.0
2017-08-17T03:53:43.596Z,82.1
2017-08-17T03:54:44.980Z,82.9
2017-08-17T03:55:46.383Z,83.0
2017-08-17T03:56:47.772Z,83.0
2017-08-17T03:57:49.163Z,82.9
2017-08-17T03:58:50.584Z,83.2
2017-08-17T03:59:51.936Z,83.2
2017-08-17T04:00:53.325Z,83.4
2017-08-17T04:01:54.704Z,83.6
2017-08-17T04:02:56.086Z,83.3
2017-08-17T04:03:57.469Z,83.5
2017-08-17T04:04:58.851Z,83.6
2017-08-17T04:06:00.231Z,83.0
2017-08-17T04:07:01.608Z,83.6
2017-08-17T04:08:02.988Z,83.8
2017-08-17T04:09:04.433Z,83.5
2017-08-17T04:10:05.912Z,83.5
2017-08-17T04:11:07.316Z,83.8
2017-08-17T04:12:08.696Z,83.4
2017-08-17T04:13:10.083Z,83.8
2017-08-17T04:14:11.474Z,83.4
2017-08-17T04:15:12.852Z,83.4
2017-08-17T04:16:14.242Z,83.3
2017-08-17T04:17:15.628Z,82.9
2017-08-17T04:18:17.014Z,82.7
2017-08-17T04:19:18.400Z,82.9
2017-08-17T04:20:19.812Z,82.9
2017-08-17T04:21:21.185Z,82.9
2017-08-17T04:22:22.570Z,83.1
2017-08-17T04:23:23.953Z,82.8
2017-08-17T04:24:25.357Z,82.9
2017-08-17T04:25:26.721Z,82.1
2017-08-17T04:26:28.113Z,82.4
2017-08-17T04:27:29.510Z,82.3
2017-08-17T04:28:30.891Z,82.7
2017-08-17T04:29:32.271Z,83.0
2017-08-17T04:30:33.657Z,83.1
2017-08-17T04:31:35.043Z,83.0
2017-08-17T04:32:36.429Z,82.8
2017-08-17T04:33:37.812Z,82.2
2017-08-17T04:34:39.225Z,82.2
2017-08-17T04:35:40.603Z,82.0
2017-08-17T04:36:41.986Z,82.5
2017-08-17T04:37:43.384Z,81.8
2017-08-17T04:38:44.755Z,82.0
2017-08-17T04:39:46.152Z,81.9
2017-08-17T04:41:28.524Z,82.1
2017-08-17T04:42:29.907Z,82.0
2017-08-17T04:43:31.289Z,81.9
2017-08-17T04:44:32.747Z,81.9
2017-08-17T04:45:34.117Z,81.1
2017-08-17T04:46:36.412Z,81.1
2017-08-17T04:47:37.728Z,81.8
2017-08-17T04:48:39.091Z,81.8
2017-08-17T04:49:40.471Z,81.3
2017-08-17T07:04:03.539Z,60.7
2017-08-17T07:05:04.946Z,59.0
2017-08-17T07:06:26.861Z,60.1
2017-08-17T07:07:28.313Z,60.0
2017-08-17T07:08:51.340Z,59.0
2017-08-17T07:09:52.730Z,59.5
2017-08-17T07:10:54.117Z,58.9
2017-08-17T07:11:55.523Z,58.8
2017-08-17T07:12:56.910Z,58.2
2017-08-17T07:13:58.301Z,57.1
2017-08-17T07:14:59.703Z,58.1
2017-08-17T07:16:01.100Z,57.7
2017-08-17T07:17:02.496Z,58.8
2017-08-17T07:18:03.886Z,58.9
2017-08-17T07:19:05.278Z,58.6
2017-08-17T07:20:06.728Z,58.7
2017-08-17T07:21:08.123Z,59.8
2017-08-17T07:22:09.518Z,59.9
2017-08-17T07:23:10.910Z,59.9
2017-08-17T07:24:52.288Z,59.5
2017-08-17T07:25:53.675Z,60.0
2017-08-17T07:27:15.698Z,60.6
2017-08-17T07:28:17.128Z,59.7
2017-08-17T07:29:40.139Z,59.5
2017-08-17T07:30:41.529Z,60.7
2017-08-17T07:31:42.914Z,59.4
2017-08-17T07:32:44.308Z,60.7
2017-08-17T07:33:45.700Z,58.9
2017-08-17T07:34:47.096Z,58.9
2017-08-17T07:35:48.491Z,58.6
2017-08-17T07:36:49.877Z,58.0
2017-08-17T07:37:51.272Z,58.4
2017-08-17T07:38:52.659Z,57.7
2017-08-17T07:39:54.048Z,56.8
2017-08-17T07:40:55.438Z,56.6
2017-08-17T07:41:56.834Z,55.7
2017-08-17T07:42:58.261Z,55.2
2017-08-17T07:43:59.653Z,55.2
2017-08-17T07:45:01.046Z,55.3
2017-08-17T07:46:02.437Z,55.4
2017-08-17T07:47:03.828Z,55.0
2017-08-17T07:48:05.227Z,55.6
2017-08-17T07:49:06.620Z,54.4
2017-08-17T07:50:08.016Z,52.3
2017-08-17T07:51:09.403Z,52.8
2017-08-17T07:52:10.823Z,53.8
2017-08-17T07:53:12.192Z,53.7
2017-08-17T07:54:13.579Z,53.2
2017-08-17T07:55:14.973Z,51.9
2017-08-17T07:56:16.362Z,52.6
2017-08-17T07:57:58.759Z,51.7
2017-08-17T07:59:00.176Z,52.8
2017-08-17T08:00:01.568Z,51.1
2017-08-17T08:01:02.960Z,51.4
2017-08-17T08:02:04.356Z,51.6
2017-08-17T08:03:05.767Z,51.8
2017-08-17T08:04:07.143Z,52.3
2017-08-17T08:05:08.537Z,52.2
2017-08-17T08:06:09.927Z,51.8
2017-08-17T08:07:11.319Z,52.1
2017-08-17T08:08:12.730Z,52.6
2017-08-17T08:09:14.105Z,52.7
2017-08-17T08:10:15.513Z,52.2
2017-08-17T08:11:16.908Z,51.8
2017-08-17T08:12:18.301Z,51.3
2017-08-17T08:13:19.692Z,52.5
2017-08-17T08:14:21.083Z,51.6
2017-08-17T08:15:22.475Z,52.3
2017-08-17T08:16:23.872Z,51.7
2017-08-17T08:17:25.265Z,51.3
2017-08-17T08:18:26.659Z,50.9
2017-08-17T08:19:28.050Z,50.7
2017-08-17T08:20:29.441Z,50.6
2017-08-17T08:21:30.836Z,50.8
2017-08-17T08:22:32.233Z,50.8
2017-08-17T08:23:33.620Z,49.8
2017-08-17T08:24:35.011Z,50.2
2017-08-17T08:25:36.403Z,50.0
2017-08-17T08:26:37.795Z,50.4
2017-08-17T08:27:39.187Z,49.4
2017-08-17T08:28:40.602Z,49.7
2017-08-17T08:29:41.995Z,49.5
2017-08-17T08:30:43.395Z,48.7
2017-08-17T08:31:44.803Z,49.7
2017-08-17T08:32:46.193Z,49.6
2017-08-17T08:33:47.590Z,49.3
2017-08-17T08:34:48.982Z,47.8
2017-08-17T08:35:50.373Z,48.4
2017-08-17T08:36:51.770Z,48.7
2017-08-17T08:37:53.161Z,46.9
2017-08-17T08:38:54.561Z,47.0
2017-08-17T08:39:55.954Z,46.8
2017-08-17T08:40:57.409Z,46.0
2017-08-17T08:41:59.004Z,44.9
2017-08-17T08:43:00.762Z,45.2
2017-08-17T08:44:02.172Z,44.2
2017-08-17T08:45:03.578Z,43.7
2017-08-17T08:46:05.018Z,44.3
2017-08-17T08:47:06.420Z,44.6
2017-08-17T08:48:07.817Z,43.8
2017-08-17T08:49:09.214Z,44.6
2017-08-17T08:50:10.603Z,44.7
2017-08-17T08:51:11.999Z,44.5
2017-08-17T08:52:13.396Z,44.5
2017-08-17T08:53:14.806Z,44.4
2017-08-17T08:54:16.202Z,44.3
2017-08-17T08:55:17.598Z,44.9
2017-08-17T08:56:18.994Z,44.1
2017-08-17T08:57:20.389Z,44.7
2017-08-17T08:58:21.778Z,44.0
2017-08-17T08:59:23.171Z,44.6
2017-08-17T09:01:04.596Z,44.8
2017-08-17T09:02:05.976Z,44.4
2017-08-17T09:03:07.367Z,44.3
2017-08-17T09:04:08.782Z,45.0
2017-08-17T09:05:10.213Z,44.4
2017-08-17T09:06:11.593Z,44.4
2017-08-17T09:07:12.988Z,44.9
2017-08-17T09:08:14.636Z,45.1
2017-08-17T09:09:16.053Z,45.6
2017-08-17T09:10:17.455Z,46.1
2017-08-17T09:11:18.845Z,45.6
2017-08-17T09:12:20.244Z,44.7
2017-08-17T09:13:21.636Z,44.1
2017-08-17T09:14:23.028Z,44.4
2017-08-17T09:16:04.424Z,45.9
2017-08-17T09:17:05.812Z,45.8
2017-08-17T09:18:27.824Z,45.1
2017-08-17T09:19:29.215Z,44.7
2017-08-17T09:20:52.229Z,45.1
2017-08-17T09:21:53.618Z,46.2
2017-08-17T09:22:55.016Z,46.1
2017-08-17T09:23:56.408Z,46.5
2017-08-17T09:24:57.805Z,46.3
2017-08-17T09:25:59.195Z,46.6
2017-08-17T09:27:00.590Z,46.2
2017-08-17T09:28:01.987Z,45.7
2017-08-17T09:29:03.391Z,46.4
2017-08-17T09:30:04.789Z,47.1
2017-08-17T09:31:06.178Z,47.5
2017-08-17T09:32:48.565Z,48.3
2017-08-17T09:33:49.955Z,48.1
2017-08-17T09:34:51.347Z,46.6
2017-08-17T09:35:52.740Z,47.3
2017-08-17T09:36:54.138Z,47.4
2017-08-17T09:37:55.530Z,47.8
2017-08-17T09:38:56.923Z,47.7
2017-08-17T09:39:58.317Z,48.2
2017-08-17T09:40:59.708Z,48.7
2017-08-17T09:42:01.100Z,47.4
2017-08-17T09:43:02.493Z,48.4
2017-08-17T09:44:03.888Z,49.5
2017-08-17T09:45:05.287Z,48.8
2017-08-17T09:46:06.681Z,49.5
2017-08-17T09:47:08.077Z,49.6
2017-08-17T09:48:09.472Z,48.9
2017-08-17T09:49:10.865Z,49.5
2017-08-17T09:50:12.258Z,48.6
2017-08-17T09:51:13.653Z,48.2
2017-08-17T09:52:15.051Z,49.1
2017-08-17T09:53:16.446Z,49.5
2017-08-17T09:54:17.844Z,48.9
2017-08-17T09:55:19.236Z,49.4
2017-08-17T09:56:20.634Z,48.6
2017-08-17T09:57:22.025Z,49.8
2017-08-17T09:58:23.453Z,49.7
2017-08-17T09:59:24.847Z,49.6
2017-08-17T10:00:26.246Z,49.6
2017-08-17T10:01:27.641Z,49.6
2017-08-17T10:02:29.032Z,49.9
2017-08-17T10:03:30.428Z,49.6
2017-08-17T10:04:31.821Z,50.5
2017-08-17T10:05:33.210Z,49.5
2017-08-17T10:06:34.626Z,49.4
2017-08-17T10:07:36.009Z,49.9
2017-08-17T10:08:37.401Z,50.6
2017-08-17T10:09:38.806Z,50.8
2017-08-17T10:10:40.199Z,50.7
2017-08-17T10:11:41.621Z,50.7
2017-08-17T10:12:43.046Z,50.5
2017-08-17T10:13:44.441Z,50.7
2017-08-17T10:14:45.838Z,50.5
2017-08-17T10:15:47.249Z,50.9
2017-08-17T10:16:48.637Z,51.6
2017-08-17T10:18:31.015Z,52.1
2017-08-17T10:19:32.410Z,52.1
2017-08-17T10:20:33.803Z,52.9
2017-08-17T10:21:35.215Z,53.2
2017-08-17T10:22:36.611Z,54.0
2017-08-17T10:23:38.000Z,53.8
2017-08-17T10:24:39.397Z,53.8
2017-08-17T10:25:40.791Z,53.6
2017-08-17T10:26:42.180Z,53.8
2017-08-17T10:27:43.572Z,53.7
2017-08-17T10:28:44.966Z,52.8
2017-08-17T10:29:46.358Z,53.7
2017-08-17T10:30:47.757Z,52.3
2017-08-17T10:31:49.151Z,51.7
2017-08-17T10:32:50.547Z,52.4
2017-08-17T10:33:51.939Z,54.2
2017-08-17T10:34:53.328Z,53.0
2017-08-17T10:35:54.722Z,54.2
2017-08-17T10:36:56.116Z,53.4
2017-08-17T10:37:57.511Z,54.0
2017-08-17T10:38:58.905Z,53.7
2017-08-17T10:40:00.299Z,52.3
2017-08-17T10:41:01.695Z,52.4
2017-08-17T10:42:03.082Z,52.4
2017-08-17T10:43:04.476Z,53.7
2017-08-17T10:44:05.873Z,52.7
2017-08-17T10:45:07.267Z,52.8
2017-08-17T10:46:08.660Z,52.9
2017-08-17T10:47:10.064Z,52.9
2017-08-17T10:48:11.450Z,54.6
2017-08-17T10:49:12.845Z,53.7
2017-08-17T10:50:14.238Z,54.0
2017-08-17T10:51:15.632Z,54.9
2017-08-17T10:52:17.026Z,54.8
2017-08-17T10:53:18.420Z,54.9
2017-08-17T10:54:19.834Z,54.7
2017-08-17T10:55:21.204Z,54.8
2017-08-17T10:56:22.596Z,55.4
2017-08-17T10:57:23.988Z,55.2
2017-08-17T10:58:25.379Z,55.1
2017-08-17T10:59:26.774Z,53.7
2017-08-17T11:00:28.166Z,53.9
2017-08-17T11:01:29.561Z,54.5
2017-08-17T11:02:30.951Z,55.1
2017-08-17T11:03:32.343Z,56.1
2017-08-17T11:04:33.737Z,55.0
2017-08-17T11:06:16.128Z,56.1
2017-08-17T11:07:17.519Z,55.4
2017-08-17T11:08:18.906Z,55.7
2017-08-17T11:09:20.299Z,56.2
2017-08-17T11:10:21.694Z,55.7
2017-08-17T11:11:23.087Z,55.2
2017-08-17T11:12:24.480Z,54.9
2017-08-17T11:13:25.880Z,55.5
2017-08-17T11:14:27.271Z,55.6
2017-08-17T11:15:28.663Z,55.3
2017-08-17T11:16:30.061Z,56.6
2017-08-17T11:17:31.472Z,55.8
2017-08-17T11:18:32.880Z,55.5
2017-08-17T11:19:34.273Z,55.6
2017-08-17T11:20:35.669Z,56.2
2017-08-17T11:21:37.060Z,55.1
2017-08-17T11:22:38.451Z,56.1
2017-08-17T11:23:39.937Z,55.6
2017-08-17T11:24:41.343Z,56.4
2017-08-17T11:25:42.736Z,56.1
2017-08-17T11:26:44.129Z,55.1
2017-08-17T11:27:45.522Z,56.5
2017-08-17T11:28:46.922Z,55.8
2017-08-17T11:29:48.314Z,54.9
2017-08-17T11:30:49.707Z,55.6
2017-08-17T11:31:51.101Z,57.2
2017-08-17T11:32:52.493Z,56.6
2017-08-17T11:33:53.891Z,56.5
2017-08-17T11:34:55.334Z,56.0
2017-08-17T11:35:56.731Z,55.2
2017-08-17T11:36:58.121Z,55.0
2017-08-17T11:37:59.510Z,54.1
2017-08-17T11:39:00.935Z,54.5
2017-08-17T11:40:02.329Z,53.0
2017-08-17T11:41:03.722Z,54.2
2017-08-17T11:42:05.113Z,52.7
2017-08-17T11:43:06.511Z,53.2
2017-08-17T11:44:07.911Z,53.8
2017-08-17T11:45:09.305Z,54.1
2017-08-17T11:46:10.703Z,54.9
2017-08-17T11:47:12.107Z,54.1
2017-08-17T11:48:13.501Z,54.0
2017-08-17T11:49:14.900Z,53.5
2017-08-17T11:50:16.292Z,53.6
2017-08-17T11:51:17.684Z,53.7
2017-08-17T11:52:19.079Z,52.9
2017-08-17T11:53:20.477Z,53.4
2017-08-17T11:54:21.874Z,52.7
2017-08-17T11:55:23.276Z,51.9
2017-08-17T11:56:24.664Z,51.5
2017-08-17T11:57:26.056Z,51.8
2017-08-17T11:58:27.448Z,50.7
2017-08-17T11:59:28.840Z,50.8
2017-08-17T12:00:30.237Z,51.0
2017-08-17T12:01:31.631Z,50.9
2017-08-17T12:02:33.026Z,50.7
2017-08-17T12:03:34.427Z,49.7
2017-08-17T12:04:35.820Z,49.3
2017-08-17T12:05:37.217Z,49.9
2017-08-17T12:06:38.610Z,49.7
2017-08-17T12:07:40.006Z,49.9
2017-08-17T12:08:41.410Z,49.6
2017-08-17T12:09:42.807Z,49.0
2017-08-17T12:10:44.211Z,49.5
2017-08-17T12:11:45.606Z,49.0
2017-08-17T12:12:47.000Z,49.6
2017-08-17T12:13:48.395Z,48.6
2017-08-17T12:15:29.811Z,48.4
2017-08-17T12:16:31.206Z,47.6
2017-08-17T12:17:32.604Z,47.2
2017-08-17T12:18:33.999Z,47.8
2017-08-17T12:19:35.396Z,45.3
2017-08-17T12:20:36.882Z,46.6
2017-08-17T12:21:38.277Z,47.2
2017-08-17T12:22:39.727Z,48.5
2017-08-17T12:23:41.086Z,47.1
2017-08-17T12:24:42.481Z,46.9
2017-08-17T12:25:43.877Z,46.1
2017-08-17T12:26:45.273Z,46.8
2017-08-17T12:27:46.671Z,46.8
2017-08-17T12:28:48.064Z,46.4
2017-08-17T12:29:49.463Z,46.5
2017-08-17T12:30:50.860Z,46.5
2017-08-17T12:31:52.255Z,47.4
2017-08-17T12:32:53.652Z,47.7
2017-08-17T12:33:55.042Z,47.4
2017-08-17T12:34:56.503Z,47.5
2017-08-17T12:35:58.066Z,47.7
2017-08-17T12:36:59.453Z,47.3
2017-08-17T12:38:00.858Z,48.2
2017-08-17T12:39:02.259Z,47.1
2017-08-17T12:40:03.657Z,47.5
2017-08-17T12:41:05.084Z,47.9
2017-08-17T12:42:06.459Z,48.0
2017-08-17T12:43:07.855Z,47.5
2017-08-17T12:44:09.252Z,47.0
2017-08-17T12:45:10.650Z,47.4
2017-08-17T12:46:12.168Z,48.0
2017-08-17T12:47:13.554Z,46.6
2017-08-17T12:48:14.951Z,47.5
2017-08-17T12:49:16.346Z,46.0
2017-08-17T12:50:17.746Z,47.4
2017-08-17T12:51:19.142Z,48.6
2017-08-17T12:52:20.537Z,47.3
2017-08-17T12:53:21.931Z,47.4
2017-08-17T12:54:23.325Z,48.4
2017-08-17T12:55:24.730Z,47.8
2017-08-17T12:56:26.122Z,48.5
2017-08-17T12:57:27.518Z,49.6
2017-08-17T12:58:28.916Z,51.5
2017-08-17T12:59:30.537Z,50.7
2017-08-17T13:00:31.932Z,50.8
2017-08-17T13:01:33.330Z,50.7
2017-08-17T13:02:34.774Z,49.8
2017-08-17T13:04:17.180Z,50.1
2017-08-17T13:05:18.571Z,49.8
2017-08-17T13:06:19.963Z,50.6
2017-08-17T13:07:21.368Z,49.5
2017-08-17T13:08:22.756Z,49.5
2017-08-17T13:09:24.154Z,49.8
2017-08-17T13:10:25.600Z,49.3
2017-08-17T13:11:26.991Z,50.9
2017-08-17T13:12:28.381Z,50.5
2017-08-17T13:13:29.772Z,50.7
2017-08-17T13:14:31.175Z,50.9
2017-08-17T13:15:32.621Z,50.6
2017-08-17T13:16:34.090Z,49.6
2017-08-17T13:17:35.549Z,50.3
2017-08-17T13:18:36.947Z,49.8
2017-08-17T13:20:19.767Z,49.7
2017-08-17T13:21:21.139Z,49.3
2017-08-17T13:22:22.527Z,49.2
2017-08-17T13:23:23.918Z,50.1
2017-08-17T13:24:25.309Z,49.9
2017-08-17T13:25:26.725Z,49.4
2017-08-17T13:26:28.102Z,49.7
2017-08-17T13:27:29.496Z,50.2
2017-08-17T13:28:30.888Z,50.7
2017-08-17T13:29:32.280Z,51.4
2017-08-17T13:30:33.668Z,51.8
2017-08-17T13:31:35.061Z,52.6
2017-08-17T13:32:36.457Z,51.7
2017-08-17T13:33:37.846Z,52.2
2017-08-17T13:34:39.244Z,52.6
2017-08-17T13:36:21.625Z,52.6
2017-08-17T13:37:23.012Z,53.3
2017-08-17T13:38:24.403Z,52.5
2017-08-17T13:39:25.791Z,53.8
2017-08-17T13:40:27.187Z,53.7
2017-08-17T13:41:28.578Z,53.5
2017-08-17T13:42:29.975Z,52.7
2017-08-17T13:43:31.363Z,52.5
2017-08-17T13:44:32.759Z,53.0
2017-08-17T13:45:34.143Z,53.5
2017-08-17T13:46:35.528Z,53.7
2017-08-17T13:47:36.926Z,54.0
2017-08-17T13:48:38.319Z,54.1
2017-08-17T13:49:39.707Z,54.8
2017-08-17T13:50:41.104Z,55.3
2017-08-17T13:51:42.495Z,55.3
2017-08-17T13:52:43.881Z,55.4
2017-08-17T13:53:45.305Z,55.3
2017-08-17T13:54:46.692Z,55.6
2017-08-17T13:55:48.088Z,55.4
2017-08-17T13:56:49.474Z,55.5
2017-08-17T13:57:50.871Z,56.4
2017-08-17T13:58:52.260Z,56.6
2017-08-17T13:59:53.654Z,58.3
2017-08-17T14:00:55.042Z,57.3
2017-08-17T14:01:56.433Z,57.6
2017-08-17T14:02:57.843Z,57.8
2017-08-17T14:03:59.234Z,58.9
2017-08-17T14:05:00.625Z,58.6
2017-08-17T14:06:02.014Z,59.6
2017-08-17T14:07:03.401Z,59.5
2017-08-17T14:08:44.776Z,60.6
2017-08-17T14:09:46.168Z,60.0
2017-08-17T14:11:09.183Z,59.8
2017-08-17T14:12:10.569Z,59.3
2017-08-17T14:13:11.959Z,58.7
2017-08-17T14:14:13.350Z,59.7
2017-08-17T14:15:14.735Z,59.5
2017-08-17T14:16:16.125Z,59.4
2017-08-17T14:17:17.512Z,59.5
2017-08-17T14:18:18.913Z,59.8
2017-08-17T14:19:20.297Z,60.5
2017-08-17T14:20:21.692Z,60.9
2017-08-17T14:21:23.074Z,60.9
2017-08-17T14:22:24.462Z,62.0
2017-08-17T14:23:25.852Z,62.1
2017-08-17T14:25:08.226Z,61.4
2017-08-17T14:26:09.654Z,61.1
2017-08-17T14:27:11.049Z,61.6
2017-08-17T14:28:12.439Z,61.3
2017-08-17T14:29:13.825Z,60.9
2017-08-17T14:30:15.219Z,60.9
2017-08-17T14:31:17.053Z,60.8
2017-08-17T14:32:18.442Z,61.0
2017-08-17T14:33:19.830Z,61.1
2017-08-17T14:34:21.219Z,61.1
2017-08-17T14:35:22.605Z,61.6
2017-08-17T14:36:23.995Z,61.9
2017-08-17T14:37:25.403Z,61.8
2017-08-17T14:38:26.778Z,62.5
2017-08-17T14:39:28.167Z,63.2
2017-08-17T14:40:29.554Z,62.0
2017-08-17T14:41:30.948Z,62.9
2017-08-17T14:42:32.467Z,63.1
2017-08-17T14:43:34.197Z,63.5
2017-08-17T14:44:35.725Z,63.0
2017-08-17T14:45:37.117Z,63.7
2017-08-17T14:46:38.503Z,63.5
2017-08-17T14:47:39.893Z,64.1
2017-08-17T14:48:41.298Z,64.3
2017-08-17T14:49:42.690Z,64.8
2017-08-17T14:50:44.086Z,64.5
2017-08-17T14:51:45.643Z,64.4
2017-08-17T14:52:47.034Z,63.2
2017-08-17T14:53:48.426Z,63.4
2017-08-17T14:54:49.816Z,63.0
2017-08-17T14:55:51.208Z,62.2
2017-08-17T14:56:52.597Z,62.9
2017-08-17T14:57:53.987Z,62.5
2017-08-17T14:58:55.375Z,62.6
2017-08-17T14:59:56.764Z,61.6
2017-08-17T15:00:58.159Z,61.6
2017-08-17T15:01:59.552Z,60.7
2017-08-17T15:03:00.949Z,60.6
2017-08-17T15:04:02.458Z,60.6
2017-08-17T15:05:03.850Z,60.5
2017-08-17T15:06:05.243Z,60.7
2017-08-17T15:07:06.637Z,60.3
2017-08-17T15:08:08.030Z,58.2
2017-08-17T15:09:09.421Z,58.6
2017-08-17T15:10:10.809Z,59.0
2017-08-17T15:11:12.201Z,57.9
2017-08-17T15:12:13.587Z,57.8
2017-08-17T15:13:14.981Z,57.6
2017-08-17T15:14:16.380Z,58.8
2017-08-17T15:15:58.747Z,59.9
2017-08-17T15:17:00.130Z,59.9
2017-08-17T15:18:01.517Z,60.1
2017-08-17T15:19:02.906Z,60.4
2017-08-17T15:20:04.298Z,61.1
2017-08-17T15:21:05.688Z,61.9
2017-08-17T15:22:07.084Z,60.9
2017-08-17T15:23:08.479Z,61.6
2017-08-17T15:24:09.869Z,61.8
2017-08-17T15:25:11.259Z,61.7
2017-08-17T15:26:12.644Z,60.9
2017-08-17T15:27:14.034Z,61.5
2017-08-17T15:28:15.423Z,61.0
2017-08-17T15:29:16.815Z,60.8
2017-08-17T15:30:18.205Z,61.8
2017-08-17T15:31:19.595Z,60.9
2017-08-17T15:33:00.984Z,61.1
2017-08-17T15:34:02.397Z,61.8
2017-08-17T15:35:03.786Z,61.2
2017-08-17T15:36:05.178Z,61.3
2017-08-17T15:37:06.584Z,61.5
2017-08-17T15:38:07.977Z,61.3
2017-08-17T15:39:09.368Z,62.1
2017-08-17T15:40:10.767Z,61.6
2017-08-17T15:41:12.157Z,61.4
2017-08-17T15:42:13.538Z,61.7
2017-08-17T15:43:14.928Z,62.9
2017-08-17T15:44:16.318Z,61.3
2017-08-17T15:45:17.715Z,62.0
2017-08-17T15:46:19.101Z,61.4
2017-08-17T15:47:20.489Z,62.1
2017-08-17T15:48:21.879Z,63.3
2017-08-17T15:49:23.267Z,62.9
2017-08-17T15:50:24.655Z,63.2
2017-08-17T15:51:26.049Z,62.8
2017-08-17T15:52:27.435Z,63.5
2017-08-17T15:53:28.826Z,63.5
2017-08-17T15:54:30.219Z,63.8
2017-08-17T15:55:31.615Z,64.4
2017-08-17T15:56:33.002Z,64.9
2017-08-17T15:57:34.393Z,65.0
2017-08-17T15:58:35.781Z,63.9
2017-08-17T15:59:37.171Z,64.0
2017-08-17T16:00:38.560Z,64.5
2017-08-17T16:01:39.947Z,63.9
2017-08-17T16:02:41.333Z,64.1
2017-08-17T16:03:42.727Z,64.5
2017-08-17T16:05:24.099Z,63.8
2017-08-17T16:06:25.488Z,63.9
2017-08-17T16:07:48.496Z,65.2
2017-08-17T16:08:49.879Z,65.1
2017-08-17T16:09:51.269Z,64.8
2017-08-17T16:10:52.666Z,65.1